sensor_id;sensor_type;location;lat;lon;timestamp;P1;durP1;ratioP1;P2;durP2;ratioP2
9821;SDS011;4950;46.042;14.472;2022-12-18T00:01:56;28.60;;;23.73;;
9821;SDS011;4950;46.042;14.472;2022-12-18T00:04:24;26.37;;;23.20;;
9821;SDS011;4950;46.042;14.472;2022-12-18T00:06:52;22.50;;;20.03;;
9821;SDS011;4950;46.042;14.472;2022-12-18T00:09:19;21.07;;;18.87;;
9821;SDS011;4950;46.042;14.472;2022-12-18T00:11:46;21.53;;;19.23;;
9821;SDS011;4950;46.042;14.472;2022-12-18T00:14:14;19.23;;;17.10;;
9821;SDS011;4950;46.042;14.472;2022-12-18T00:16:43;21.27;;;18.47;;
9821;SDS011;4950;46.042;14.472;2022-12-18T00:19:10;21.40;;;19.07;;
9821;SDS011;4950;46.042;14.472;2022-12-18T00:21:37;22.67;;;20.30;;
9821;SDS011;4950;46.042;14.472;2022-12-18T00:24:04;31.93;;;25.97;;
9821;SDS011;4950;46.042;14.472;2022-12-18T00:26:32;40.97;;;31.00;;
9821;SDS011;4950;46.042;14.472;2022-12-18T00:28:59;32.63;;;26.57;;
9821;SDS011;4950;46.042;14.472;2022-12-18T00:31:28;27.03;;;22.43;;
9821;SDS011;4950;46.042;14.472;2022-12-18T00:33:55;23.20;;;20.37;;
9821;SDS011;4950;46.042;14.472;2022-12-18T00:36:22;23.93;;;21.00;;
9821;SDS011;4950;46.042;14.472;2022-12-18T00:38:51;25.60;;;22.87;;
9821;SDS011;4950;46.042;14.472;2022-12-18T00:41:19;29.53;;;22.97;;
9821;SDS011;4950;46.042;14.472;2022-12-18T00:43:59;25.53;;;22.27;;
9821;SDS011;4950;46.042;14.472;2022-12-18T00:46:26;24.10;;;20.57;;
9821;SDS011;4950;46.042;14.472;2022-12-18T00:48:54;22.03;;;19.73;;
9821;SDS011;4950;46.042;14.472;2022-12-18T00:51:21;21.60;;;19.30;;
9821;SDS011;4950;46.042;14.472;2022-12-18T00:53:49;25.13;;;20.40;;
9821;SDS011;4950;46.042;14.472;2022-12-18T00:56:16;22.03;;;18.13;;
9821;SDS011;4950;46.042;14.472;2022-12-18T00:58:42;19.43;;;17.40;;
9821;SDS011;4950;46.042;14.472;2022-12-18T01:01:09;20.50;;;17.03;;
9821;SDS011;4950;46.042;14.472;2022-12-18T01:03:35;18.10;;;16.13;;
9821;SDS011;4950;46.042;14.472;2022-12-18T01:06:06;19.70;;;17.60;;
9821;SDS011;4950;46.042;14.472;2022-12-18T01:08:34;20.03;;;17.93;;
9821;SDS011;4950;46.042;14.472;2022-12-18T01:11:01;19.57;;;17.43;;
9821;SDS011;4950;46.042;14.472;2022-12-18T01:13:33;20.63;;;17.87;;
9821;SDS011;4950;46.042;14.472;2022-12-18T01:15:59;20.53;;;18.33;;
9821;SDS011;4950;46.042;14.472;2022-12-18T01:18:26;20.90;;;18.70;;
9821;SDS011;4950;46.042;14.472;2022-12-18T01:20:52;21.00;;;18.77;;
9821;SDS011;4950;46.042;14.472;2022-12-18T01:23:20;20.87;;;18.17;;
9821;SDS011;4950;46.042;14.472;2022-12-18T01:25:47;20.03;;;17.87;;
9821;SDS011;4950;46.042;14.472;2022-12-18T01:28:14;19.33;;;17.03;;
9821;SDS011;4950;46.042;14.472;2022-12-18T01:30:40;21.77;;;19.07;;
9821;SDS011;4950;46.042;14.472;2022-12-18T01:33:07;20.23;;;17.77;;
9821;SDS011;4950;46.042;14.472;2022-12-18T01:35:33;19.03;;;17.00;;
9821;SDS011;4950;46.042;14.472;2022-12-18T01:38:06;20.57;;;18.27;;
9821;SDS011;4950;46.042;14.472;2022-12-18T01:40:34;20.20;;;18.00;;
9821;SDS011;4950;46.042;14.472;2022-12-18T01:43:01;19.07;;;17.07;;
9821;SDS011;4950;46.042;14.472;2022-12-18T01:45:28;20.60;;;17.83;;
9821;SDS011;4950;46.042;14.472;2022-12-18T01:47:56;21.67;;;18.40;;
9821;SDS011;4950;46.042;14.472;2022-12-18T01:50:27;20.70;;;18.33;;
9821;SDS011;4950;46.042;14.472;2022-12-18T01:52:58;25.27;;;21.03;;
9821;SDS011;4950;46.042;14.472;2022-12-18T01:55:27;22.83;;;19.20;;
9821;SDS011;4950;46.042;14.472;2022-12-18T01:57:58;21.47;;;18.37;;
9821;SDS011;4950;46.042;14.472;2022-12-18T02:00:26;20.97;;;18.20;;
9821;SDS011;4950;46.042;14.472;2022-12-18T02:02:53;19.80;;;17.00;;
9821;SDS011;4950;46.042;14.472;2022-12-18T02:05:23;21.70;;;19.20;;
9821;SDS011;4950;46.042;14.472;2022-12-18T02:07:59;19.67;;;17.57;;
9821;SDS011;4950;46.042;14.472;2022-12-18T02:10:35;20.27;;;18.07;;
9821;SDS011;4950;46.042;14.472;2022-12-18T02:13:12;18.93;;;16.73;;
9821;SDS011;4950;46.042;14.472;2022-12-18T02:15:47;22.53;;;18.77;;
9821;SDS011;4950;46.042;14.472;2022-12-18T02:18:21;20.77;;;17.93;;
9821;SDS011;4950;46.042;14.472;2022-12-18T02:20:54;20.57;;;17.83;;
9821;SDS011;4950;46.042;14.472;2022-12-18T02:23:31;23.80;;;19.03;;
9821;SDS011;4950;46.042;14.472;2022-12-18T02:26:13;20.00;;;17.90;;
9821;SDS011;4950;46.042;14.472;2022-12-18T02:28:45;21.67;;;18.30;;
9821;SDS011;4950;46.042;14.472;2022-12-18T02:31:16;21.57;;;19.27;;
9821;SDS011;4950;46.042;14.472;2022-12-18T02:33:51;22.53;;;19.33;;
9821;SDS011;4950;46.042;14.472;2022-12-18T02:36:21;23.20;;;19.23;;
9821;SDS011;4950;46.042;14.472;2022-12-18T02:38:49;22.83;;;20.07;;
9821;SDS011;4950;46.042;14.472;2022-12-18T02:41:19;22.83;;;20.23;;
9821;SDS011;4950;46.042;14.472;2022-12-18T02:43:48;23.70;;;20.00;;
9821;SDS011;4950;46.042;14.472;2022-12-18T02:46:29;23.43;;;20.23;;
9821;SDS011;4950;46.042;14.472;2022-12-18T02:49:01;21.43;;;18.67;;
9821;SDS011;4950;46.042;14.472;2022-12-18T02:51:39;23.57;;;19.53;;
9821;SDS011;4950;46.042;14.472;2022-12-18T02:54:18;21.77;;;19.47;;
9821;SDS011;4950;46.042;14.472;2022-12-18T02:56:55;23.80;;;20.50;;
9821;SDS011;4950;46.042;14.472;2022-12-18T02:59:25;24.07;;;19.97;;
9821;SDS011;4950;46.042;14.472;2022-12-18T03:01:57;23.77;;;20.83;;
9821;SDS011;4950;46.042;14.472;2022-12-18T03:04:28;25.10;;;20.77;;
9821;SDS011;4950;46.042;14.472;2022-12-18T03:06:59;25.00;;;19.63;;
9821;SDS011;4950;46.042;14.472;2022-12-18T03:09:30;24.57;;;20.03;;
9821;SDS011;4950;46.042;14.472;2022-12-18T03:12:02;25.40;;;20.30;;
9821;SDS011;4950;46.042;14.472;2022-12-18T03:14:48;28.27;;;22.27;;
9821;SDS011;4950;46.042;14.472;2022-12-18T03:17:18;26.90;;;22.67;;
9821;SDS011;4950;46.042;14.472;2022-12-18T03:19:48;26.40;;;21.90;;
9821;SDS011;4950;46.042;14.472;2022-12-18T03:22:17;27.47;;;22.13;;
9821;SDS011;4950;46.042;14.472;2022-12-18T03:24:46;25.00;;;21.60;;
9821;SDS011;4950;46.042;14.472;2022-12-18T03:27:18;26.97;;;23.00;;
9821;SDS011;4950;46.042;14.472;2022-12-18T03:29:48;25.57;;;21.20;;
9821;SDS011;4950;46.042;14.472;2022-12-18T03:32:21;26.50;;;22.57;;
9821;SDS011;4950;46.042;14.472;2022-12-18T03:34:53;24.10;;;20.83;;
9821;SDS011;4950;46.042;14.472;2022-12-18T03:37:23;25.07;;;20.47;;
9821;SDS011;4950;46.042;14.472;2022-12-18T03:39:50;24.30;;;21.10;;
9821;SDS011;4950;46.042;14.472;2022-12-18T03:42:20;23.47;;;20.63;;
9821;SDS011;4950;46.042;14.472;2022-12-18T03:44:54;22.47;;;19.63;;
9821;SDS011;4950;46.042;14.472;2022-12-18T03:47:28;23.77;;;19.40;;
9821;SDS011;4950;46.042;14.472;2022-12-18T03:49:59;26.53;;;21.23;;
9821;SDS011;4950;46.042;14.472;2022-12-18T03:52:36;23.63;;;19.73;;
9821;SDS011;4950;46.042;14.472;2022-12-18T03:55:07;24.77;;;20.57;;
9821;SDS011;4950;46.042;14.472;2022-12-18T03:57:37;25.47;;;20.80;;
9821;SDS011;4950;46.042;14.472;2022-12-18T04:00:06;25.27;;;20.60;;
9821;SDS011;4950;46.042;14.472;2022-12-18T04:02:36;22.67;;;20.13;;
9821;SDS011;4950;46.042;14.472;2022-12-18T04:05:07;24.47;;;19.60;;
9821;SDS011;4950;46.042;14.472;2022-12-18T04:07:36;24.30;;;20.47;;
9821;SDS011;4950;46.042;14.472;2022-12-18T04:10:04;22.43;;;20.03;;
9821;SDS011;4950;46.042;14.472;2022-12-18T04:12:33;27.13;;;22.03;;
9821;SDS011;4950;46.042;14.472;2022-12-18T04:15:01;23.70;;;20.80;;
9821;SDS011;4950;46.042;14.472;2022-12-18T04:17:27;23.13;;;19.20;;
9821;SDS011;4950;46.042;14.472;2022-12-18T04:19:54;23.17;;;20.37;;
9821;SDS011;4950;46.042;14.472;2022-12-18T04:22:21;24.20;;;20.07;;
9821;SDS011;4950;46.042;14.472;2022-12-18T04:24:47;22.00;;;19.20;;
9821;SDS011;4950;46.042;14.472;2022-12-18T04:27:14;23.13;;;20.47;;
9821;SDS011;4950;46.042;14.472;2022-12-18T04:29:41;25.00;;;21.20;;
9821;SDS011;4950;46.042;14.472;2022-12-18T04:32:08;21.60;;;18.90;;
9821;SDS011;4950;46.042;14.472;2022-12-18T04:34:35;24.70;;;20.60;;
9821;SDS011;4950;46.042;14.472;2022-12-18T04:37:02;25.90;;;20.23;;
9821;SDS011;4950;46.042;14.472;2022-12-18T04:39:29;23.87;;;19.60;;
9821;SDS011;4950;46.042;14.472;2022-12-18T04:41:55;23.87;;;19.43;;
9821;SDS011;4950;46.042;14.472;2022-12-18T04:44:22;21.90;;;19.10;;
9821;SDS011;4950;46.042;14.472;2022-12-18T04:46:49;25.17;;;20.30;;
9821;SDS011;4950;46.042;14.472;2022-12-18T04:49:17;23.57;;;19.57;;
9821;SDS011;4950;46.042;14.472;2022-12-18T04:51:43;21.60;;;19.27;;
9821;SDS011;4950;46.042;14.472;2022-12-18T04:54:10;24.57;;;20.53;;
9821;SDS011;4950;46.042;14.472;2022-12-18T04:56:36;26.43;;;19.87;;
9821;SDS011;4950;46.042;14.472;2022-12-18T04:59:03;22.70;;;20.03;;
9821;SDS011;4950;46.042;14.472;2022-12-18T05:01:29;23.53;;;19.20;;
9821;SDS011;4950;46.042;14.472;2022-12-18T05:03:56;23.90;;;20.80;;
9821;SDS011;4950;46.042;14.472;2022-12-18T05:06:24;22.57;;;19.83;;
9821;SDS011;4950;46.042;14.472;2022-12-18T05:08:51;23.63;;;20.20;;
9821;SDS011;4950;46.042;14.472;2022-12-18T05:11:17;22.27;;;19.07;;
9821;SDS011;4950;46.042;14.472;2022-12-18T05:13:44;24.17;;;19.43;;
9821;SDS011;4950;46.042;14.472;2022-12-18T05:16:11;27.90;;;21.73;;
9821;SDS011;4950;46.042;14.472;2022-12-18T05:18:39;34.97;;;25.87;;
9821;SDS011;4950;46.042;14.472;2022-12-18T05:21:06;34.30;;;25.97;;
9821;SDS011;4950;46.042;14.472;2022-12-18T05:23:34;33.70;;;26.30;;
9821;SDS011;4950;46.042;14.472;2022-12-18T05:26:02;30.07;;;23.60;;
9821;SDS011;4950;46.042;14.472;2022-12-18T05:28:31;25.60;;;21.17;;
9821;SDS011;4950;46.042;14.472;2022-12-18T05:31:00;24.47;;;20.13;;
9821;SDS011;4950;46.042;14.472;2022-12-18T05:33:28;23.80;;;18.93;;
9821;SDS011;4950;46.042;14.472;2022-12-18T05:35:57;23.50;;;20.33;;
9821;SDS011;4950;46.042;14.472;2022-12-18T05:38:26;23.63;;;19.33;;
9821;SDS011;4950;46.042;14.472;2022-12-18T05:40:54;21.30;;;18.83;;
9821;SDS011;4950;46.042;14.472;2022-12-18T05:43:22;23.13;;;19.13;;
9821;SDS011;4950;46.042;14.472;2022-12-18T05:45:49;22.57;;;19.27;;
9821;SDS011;4950;46.042;14.472;2022-12-18T05:48:17;22.23;;;18.83;;
9821;SDS011;4950;46.042;14.472;2022-12-18T05:50:44;21.40;;;18.63;;
9821;SDS011;4950;46.042;14.472;2022-12-18T05:53:12;20.77;;;18.37;;
9821;SDS011;4950;46.042;14.472;2022-12-18T05:55:40;22.23;;;19.03;;
9821;SDS011;4950;46.042;14.472;2022-12-18T05:58:09;22.33;;;18.87;;
9821;SDS011;4950;46.042;14.472;2022-12-18T06:00:38;22.40;;;19.30;;
9821;SDS011;4950;46.042;14.472;2022-12-18T06:03:06;21.47;;;18.77;;
9821;SDS011;4950;46.042;14.472;2022-12-18T06:05:34;22.37;;;18.63;;
9821;SDS011;4950;46.042;14.472;2022-12-18T06:08:01;22.97;;;18.80;;
9821;SDS011;4950;46.042;14.472;2022-12-18T06:10:28;22.47;;;19.13;;
9821;SDS011;4950;46.042;14.472;2022-12-18T06:12:55;24.37;;;20.53;;
9821;SDS011;4950;46.042;14.472;2022-12-18T06:15:23;21.33;;;19.03;;
9821;SDS011;4950;46.042;14.472;2022-12-18T06:17:49;23.63;;;19.83;;
9821;SDS011;4950;46.042;14.472;2022-12-18T06:20:16;23.90;;;20.00;;
9821;SDS011;4950;46.042;14.472;2022-12-18T06:22:43;22.13;;;19.47;;
9821;SDS011;4950;46.042;14.472;2022-12-18T06:25:09;21.17;;;18.53;;
9821;SDS011;4950;46.042;14.472;2022-12-18T06:27:36;22.63;;;19.37;;
9821;SDS011;4950;46.042;14.472;2022-12-18T06:30:05;24.13;;;20.20;;
9821;SDS011;4950;46.042;14.472;2022-12-18T06:32:34;24.37;;;20.80;;
9821;SDS011;4950;46.042;14.472;2022-12-18T06:35:01;22.40;;;18.83;;
9821;SDS011;4950;46.042;14.472;2022-12-18T06:37:27;22.50;;;18.90;;
9821;SDS011;4950;46.042;14.472;2022-12-18T06:39:54;22.20;;;19.77;;
9821;SDS011;4950;46.042;14.472;2022-12-18T06:42:21;22.30;;;19.07;;
9821;SDS011;4950;46.042;14.472;2022-12-18T06:44:48;24.93;;;20.80;;
9821;SDS011;4950;46.042;14.472;2022-12-18T06:47:14;25.37;;;21.43;;
9821;SDS011;4950;46.042;14.472;2022-12-18T06:49:42;24.17;;;20.47;;
9821;SDS011;4950;46.042;14.472;2022-12-18T06:52:09;25.43;;;21.43;;
9821;SDS011;4950;46.042;14.472;2022-12-18T06:54:36;22.87;;;19.37;;
9821;SDS011;4950;46.042;14.472;2022-12-18T06:57:02;23.43;;;20.13;;
9821;SDS011;4950;46.042;14.472;2022-12-18T06:59:29;24.67;;;20.33;;
9821;SDS011;4950;46.042;14.472;2022-12-18T07:01:55;24.50;;;19.23;;
9821;SDS011;4950;46.042;14.472;2022-12-18T07:04:25;23.13;;;19.97;;
9821;SDS011;4950;46.042;14.472;2022-12-18T07:06:55;25.70;;;21.63;;
9821;SDS011;4950;46.042;14.472;2022-12-18T07:09:22;24.90;;;19.90;;
9821;SDS011;4950;46.042;14.472;2022-12-18T07:11:48;23.50;;;19.97;;
9821;SDS011;4950;46.042;14.472;2022-12-18T07:14:15;22.23;;;19.33;;
9821;SDS011;4950;46.042;14.472;2022-12-18T07:16:42;24.67;;;20.70;;
9821;SDS011;4950;46.042;14.472;2022-12-18T07:19:11;22.47;;;18.77;;
9821;SDS011;4950;46.042;14.472;2022-12-18T07:21:38;25.97;;;21.43;;
9821;SDS011;4950;46.042;14.472;2022-12-18T07:24:06;23.30;;;20.00;;
9821;SDS011;4950;46.042;14.472;2022-12-18T07:26:33;23.40;;;20.43;;
9821;SDS011;4950;46.042;14.472;2022-12-18T07:29:00;25.70;;;22.43;;
9821;SDS011;4950;46.042;14.472;2022-12-18T07:31:26;25.20;;;20.40;;
9821;SDS011;4950;46.042;14.472;2022-12-18T07:33:54;25.27;;;21.47;;
9821;SDS011;4950;46.042;14.472;2022-12-18T07:36:20;26.60;;;22.67;;
9821;SDS011;4950;46.042;14.472;2022-12-18T07:38:47;24.37;;;21.77;;
9821;SDS011;4950;46.042;14.472;2022-12-18T07:41:15;27.20;;;22.00;;
9821;SDS011;4950;46.042;14.472;2022-12-18T07:43:43;26.07;;;22.10;;
9821;SDS011;4950;46.042;14.472;2022-12-18T07:46:10;25.80;;;22.40;;
9821;SDS011;4950;46.042;14.472;2022-12-18T07:48:39;24.97;;;21.57;;
9821;SDS011;4950;46.042;14.472;2022-12-18T07:51:06;22.90;;;20.33;;
9821;SDS011;4950;46.042;14.472;2022-12-18T07:53:34;26.10;;;20.83;;
9821;SDS011;4950;46.042;14.472;2022-12-18T07:56:02;25.60;;;21.63;;
9821;SDS011;4950;46.042;14.472;2022-12-18T07:58:31;24.37;;;21.00;;
9821;SDS011;4950;46.042;14.472;2022-12-18T08:01:02;24.77;;;20.57;;
9821;SDS011;4950;46.042;14.472;2022-12-18T08:03:30;23.10;;;19.73;;
9821;SDS011;4950;46.042;14.472;2022-12-18T08:05:58;25.53;;;21.27;;
9821;SDS011;4950;46.042;14.472;2022-12-18T08:08:25;26.17;;;22.10;;
9821;SDS011;4950;46.042;14.472;2022-12-18T08:10:52;28.33;;;23.13;;
9821;SDS011;4950;46.042;14.472;2022-12-18T08:13:19;25.30;;;22.53;;
9821;SDS011;4950;46.042;14.472;2022-12-18T08:15:48;25.53;;;21.43;;
9821;SDS011;4950;46.042;14.472;2022-12-18T08:18:21;26.27;;;22.40;;
9821;SDS011;4950;46.042;14.472;2022-12-18T08:20:48;27.73;;;22.97;;
9821;SDS011;4950;46.042;14.472;2022-12-18T08:23:15;27.53;;;23.23;;
9821;SDS011;4950;46.042;14.472;2022-12-18T08:25:41;25.83;;;22.13;;
9821;SDS011;4950;46.042;14.472;2022-12-18T08:28:09;26.30;;;22.27;;
9821;SDS011;4950;46.042;14.472;2022-12-18T08:30:35;25.67;;;22.80;;
9821;SDS011;4950;46.042;14.472;2022-12-18T08:33:04;28.30;;;23.53;;
9821;SDS011;4950;46.042;14.472;2022-12-18T08:35:34;28.47;;;24.70;;
9821;SDS011;4950;46.042;14.472;2022-12-18T08:38:01;31.20;;;24.83;;
9821;SDS011;4950;46.042;14.472;2022-12-18T08:40:28;31.50;;;24.97;;
9821;SDS011;4950;46.042;14.472;2022-12-18T08:42:54;32.37;;;27.40;;
9821;SDS011;4950;46.042;14.472;2022-12-18T08:45:39;37.57;;;29.57;;
9821;SDS011;4950;46.042;14.472;2022-12-18T08:48:06;32.77;;;27.07;;
9821;SDS011;4950;46.042;14.472;2022-12-18T08:50:33;34.53;;;27.30;;
9821;SDS011;4950;46.042;14.472;2022-12-18T08:53:00;30.03;;;23.70;;
9821;SDS011;4950;46.042;14.472;2022-12-18T08:55:27;33.10;;;29.47;;
9821;SDS011;4950;46.042;14.472;2022-12-18T08:57:53;31.80;;;28.07;;
9821;SDS011;4950;46.042;14.472;2022-12-18T09:00:20;28.20;;;23.60;;
9821;SDS011;4950;46.042;14.472;2022-12-18T09:02:46;30.57;;;25.27;;
9821;SDS011;4950;46.042;14.472;2022-12-18T09:05:15;30.77;;;27.20;;
9821;SDS011;4950;46.042;14.472;2022-12-18T09:07:41;33.83;;;28.10;;
9821;SDS011;4950;46.042;14.472;2022-12-18T09:10:08;33.33;;;28.63;;
9821;SDS011;4950;46.042;14.472;2022-12-18T09:12:35;33.27;;;27.80;;
9821;SDS011;4950;46.042;14.472;2022-12-18T09:15:02;29.77;;;26.27;;
9821;SDS011;4950;46.042;14.472;2022-12-18T09:17:29;30.43;;;26.87;;
9821;SDS011;4950;46.042;14.472;2022-12-18T09:19:56;28.20;;;24.30;;
9821;SDS011;4950;46.042;14.472;2022-12-18T09:22:24;33.07;;;27.93;;
9821;SDS011;4950;46.042;14.472;2022-12-18T09:24:50;31.30;;;26.60;;
9821;SDS011;4950;46.042;14.472;2022-12-18T09:27:17;30.53;;;27.17;;
9821;SDS011;4950;46.042;14.472;2022-12-18T09:29:43;31.67;;;25.50;;
9821;SDS011;4950;46.042;14.472;2022-12-18T09:32:10;30.03;;;24.93;;
9821;SDS011;4950;46.042;14.472;2022-12-18T09:34:37;31.17;;;24.80;;
9821;SDS011;4950;46.042;14.472;2022-12-18T09:37:03;28.67;;;24.63;;
9821;SDS011;4950;46.042;14.472;2022-12-18T09:39:31;29.73;;;25.77;;
9821;SDS011;4950;46.042;14.472;2022-12-18T09:41:58;30.87;;;25.07;;
9821;SDS011;4950;46.042;14.472;2022-12-18T09:44:26;28.07;;;23.83;;
9821;SDS011;4950;46.042;14.472;2022-12-18T09:46:58;29.13;;;24.00;;
9821;SDS011;4950;46.042;14.472;2022-12-18T09:49:31;29.83;;;25.00;;
9821;SDS011;4950;46.042;14.472;2022-12-18T09:52:02;28.23;;;23.30;;
9821;SDS011;4950;46.042;14.472;2022-12-18T09:54:38;28.43;;;23.53;;
9821;SDS011;4950;46.042;14.472;2022-12-18T09:57:12;25.67;;;22.23;;
9821;SDS011;4950;46.042;14.472;2022-12-18T09:59:40;26.30;;;22.33;;
9821;SDS011;4950;46.042;14.472;2022-12-18T10:02:14;26.83;;;22.80;;
9821;SDS011;4950;46.042;14.472;2022-12-18T10:04:42;26.83;;;22.03;;
9821;SDS011;4950;46.042;14.472;2022-12-18T10:07:10;24.00;;;20.50;;
9821;SDS011;4950;46.042;14.472;2022-12-18T10:09:47;28.83;;;23.03;;
9821;SDS011;4950;46.042;14.472;2022-12-18T10:12:22;25.93;;;22.53;;
9821;SDS011;4950;46.042;14.472;2022-12-18T10:14:55;29.00;;;24.30;;
9821;SDS011;4950;46.042;14.472;2022-12-18T10:17:29;23.23;;;20.37;;
9821;SDS011;4950;46.042;14.472;2022-12-18T10:20:04;17.70;;;15.13;;
9821;SDS011;4950;46.042;14.472;2022-12-18T10:22:42;12.40;;;10.77;;
9821;SDS011;4950;46.042;14.472;2022-12-18T10:25:18;15.10;;;13.27;;
9821;SDS011;4950;46.042;14.472;2022-12-18T10:27:51;14.17;;;12.33;;
9821;SDS011;4950;46.042;14.472;2022-12-18T10:30:21;14.73;;;11.53;;
9821;SDS011;4950;46.042;14.472;2022-12-18T10:32:49;15.90;;;12.13;;
9821;SDS011;4950;46.042;14.472;2022-12-18T10:35:18;14.93;;;12.37;;
9821;SDS011;4950;46.042;14.472;2022-12-18T10:38:02;18.10;;;13.93;;
9821;SDS011;4950;46.042;14.472;2022-12-18T10:40:33;15.90;;;13.63;;
9821;SDS011;4950;46.042;14.472;2022-12-18T10:43:16;17.30;;;14.23;;
9821;SDS011;4950;46.042;14.472;2022-12-18T10:45:58;16.63;;;14.00;;
9821;SDS011;4950;46.042;14.472;2022-12-18T10:48:27;18.03;;;14.70;;
9821;SDS011;4950;46.042;14.472;2022-12-18T10:50:55;17.37;;;14.87;;
9821;SDS011;4950;46.042;14.472;2022-12-18T10:53:24;17.87;;;15.00;;
9821;SDS011;4950;46.042;14.472;2022-12-18T10:55:55;17.47;;;14.87;;
9821;SDS011;4950;46.042;14.472;2022-12-18T10:58:24;15.73;;;13.77;;
9821;SDS011;4950;46.042;14.472;2022-12-18T11:01:02;18.57;;;14.40;;
9821;SDS011;4950;46.042;14.472;2022-12-18T11:03:32;17.13;;;13.73;;
9821;SDS011;4950;46.042;14.472;2022-12-18T11:06:02;15.70;;;12.67;;
9821;SDS011;4950;46.042;14.472;2022-12-18T11:08:30;19.07;;;14.40;;
9821;SDS011;4950;46.042;14.472;2022-12-18T11:10:58;18.77;;;15.23;;
9821;SDS011;4950;46.042;14.472;2022-12-18T11:13:26;22.27;;;16.17;;
9821;SDS011;4950;46.042;14.472;2022-12-18T11:15:54;19.40;;;16.00;;
9821;SDS011;4950;46.042;14.472;2022-12-18T11:18:22;18.97;;;15.80;;
9821;SDS011;4950;46.042;14.472;2022-12-18T11:20:53;20.50;;;15.57;;
9821;SDS011;4950;46.042;14.472;2022-12-18T11:23:24;17.53;;;14.10;;
9821;SDS011;4950;46.042;14.472;2022-12-18T11:25:53;17.63;;;14.87;;
9821;SDS011;4950;46.042;14.472;2022-12-18T11:28:35;19.80;;;15.43;;
9821;SDS011;4950;46.042;14.472;2022-12-18T11:31:11;19.63;;;15.77;;
9821;SDS011;4950;46.042;14.472;2022-12-18T11:33:51;16.67;;;13.87;;
9821;SDS011;4950;46.042;14.472;2022-12-18T11:36:23;16.93;;;13.53;;
9821;SDS011;4950;46.042;14.472;2022-12-18T11:38:54;17.10;;;13.37;;
9821;SDS011;4950;46.042;14.472;2022-12-18T11:41:26;15.73;;;13.13;;
9821;SDS011;4950;46.042;14.472;2022-12-18T11:44:14;15.17;;;13.13;;
9821;SDS011;4950;46.042;14.472;2022-12-18T11:46:46;14.87;;;12.70;;
9821;SDS011;4950;46.042;14.472;2022-12-18T11:49:19;15.73;;;12.97;;
9821;SDS011;4950;46.042;14.472;2022-12-18T11:51:51;14.97;;;12.33;;
9821;SDS011;4950;46.042;14.472;2022-12-18T11:54:22;15.70;;;12.67;;
9821;SDS011;4950;46.042;14.472;2022-12-18T11:56:49;14.13;;;11.77;;
9821;SDS011;4950;46.042;14.472;2022-12-18T11:59:23;15.70;;;12.07;;
9821;SDS011;4950;46.042;14.472;2022-12-18T12:01:58;14.47;;;11.47;;
9821;SDS011;4950;46.042;14.472;2022-12-18T12:04:42;16.77;;;12.53;;
9821;SDS011;4950;46.042;14.472;2022-12-18T12:07:28;16.33;;;13.07;;
9821;SDS011;4950;46.042;14.472;2022-12-18T12:10:06;16.73;;;13.03;;
9821;SDS011;4950;46.042;14.472;2022-12-18T12:12:47;15.60;;;13.33;;
9821;SDS011;4950;46.042;14.472;2022-12-18T12:15:28;17.10;;;13.60;;
9821;SDS011;4950;46.042;14.472;2022-12-18T12:18:07;16.40;;;14.07;;
9821;SDS011;4950;46.042;14.472;2022-12-18T12:20:42;18.40;;;13.43;;
9821;SDS011;4950;46.042;14.472;2022-12-18T12:23:20;14.70;;;12.87;;
9821;SDS011;4950;46.042;14.472;2022-12-18T12:25:56;15.13;;;13.07;;
9821;SDS011;4950;46.042;14.472;2022-12-18T12:28:35;17.77;;;14.67;;
9821;SDS011;4950;46.042;14.472;2022-12-18T12:31:20;15.33;;;13.20;;
9821;SDS011;4950;46.042;14.472;2022-12-18T12:33:58;17.63;;;14.30;;
9821;SDS011;4950;46.042;14.472;2022-12-18T12:36:32;15.00;;;12.83;;
9821;SDS011;4950;46.042;14.472;2022-12-18T12:39:04;16.37;;;13.00;;
9821;SDS011;4950;46.042;14.472;2022-12-18T12:41:34;16.33;;;13.93;;
9821;SDS011;4950;46.042;14.472;2022-12-18T12:44:22;16.97;;;13.67;;
9821;SDS011;4950;46.042;14.472;2022-12-18T12:46:54;14.90;;;12.80;;
9821;SDS011;4950;46.042;14.472;2022-12-18T12:49:25;15.67;;;13.13;;
9821;SDS011;4950;46.042;14.472;2022-12-18T12:51:56;15.03;;;12.43;;
9821;SDS011;4950;46.042;14.472;2022-12-18T12:54:26;16.73;;;13.23;;
9821;SDS011;4950;46.042;14.472;2022-12-18T12:56:54;15.63;;;12.23;;
9821;SDS011;4950;46.042;14.472;2022-12-18T12:59:28;16.80;;;13.23;;
9821;SDS011;4950;46.042;14.472;2022-12-18T13:02:09;16.97;;;13.13;;
9821;SDS011;4950;46.042;14.472;2022-12-18T13:04:45;17.20;;;13.73;;
9821;SDS011;4950;46.042;14.472;2022-12-18T13:07:19;17.07;;;13.30;;
9821;SDS011;4950;46.042;14.472;2022-12-18T13:10:12;20.70;;;13.83;;
9821;SDS011;4950;46.042;14.472;2022-12-18T13:12:52;18.47;;;13.23;;
9821;SDS011;4950;46.042;14.472;2022-12-18T13:15:21;16.23;;;12.80;;
9821;SDS011;4950;46.042;14.472;2022-12-18T13:18:03;15.53;;;12.67;;
9821;SDS011;4950;46.042;14.472;2022-12-18T13:20:32;14.33;;;12.17;;
9821;SDS011;4950;46.042;14.472;2022-12-18T13:23:01;15.30;;;12.67;;
9821;SDS011;4950;46.042;14.472;2022-12-18T13:25:50;16.57;;;12.90;;
9821;SDS011;4950;46.042;14.472;2022-12-18T13:28:20;15.70;;;13.07;;
9821;SDS011;4950;46.042;14.472;2022-12-18T13:30:48;17.77;;;13.63;;
9821;SDS011;4950;46.042;14.472;2022-12-18T13:36:16;15.77;;;13.13;;
9821;SDS011;4950;46.042;14.472;2022-12-18T13:45:36;16.30;;;13.13;;
9821;SDS011;4950;46.042;14.472;2022-12-18T13:48:17;19.13;;;13.00;;
9821;SDS011;4950;46.042;14.472;2022-12-18T13:50:52;14.27;;;12.37;;
9821;SDS011;4950;46.042;14.472;2022-12-18T13:53:26;16.27;;;13.53;;
9821;SDS011;4950;46.042;14.472;2022-12-18T13:55:55;14.33;;;12.83;;
9821;SDS011;4950;46.042;14.472;2022-12-18T13:58:22;15.60;;;12.83;;
9821;SDS011;4950;46.042;14.472;2022-12-18T14:00:49;17.57;;;13.73;;
9821;SDS011;4950;46.042;14.472;2022-12-18T14:03:17;18.80;;;14.37;;
9821;SDS011;4950;46.042;14.472;2022-12-18T14:05:45;17.63;;;15.07;;
9821;SDS011;4950;46.042;14.472;2022-12-18T14:08:21;15.93;;;13.10;;
9821;SDS011;4950;46.042;14.472;2022-12-18T14:10:51;16.77;;;13.20;;
9821;SDS011;4950;46.042;14.472;2022-12-18T14:13:19;16.70;;;12.87;;
9821;SDS011;4950;46.042;14.472;2022-12-18T14:15:50;18.77;;;13.30;;
9821;SDS011;4950;46.042;14.472;2022-12-18T14:18:19;17.60;;;13.00;;
9821;SDS011;4950;46.042;14.472;2022-12-18T14:20:48;17.73;;;13.47;;
9821;SDS011;4950;46.042;14.472;2022-12-18T14:23:30;15.07;;;11.97;;
9821;SDS011;4950;46.042;14.472;2022-12-18T14:25:59;20.40;;;13.33;;
9821;SDS011;4950;46.042;14.472;2022-12-18T14:28:26;15.33;;;12.90;;
9821;SDS011;4950;46.042;14.472;2022-12-18T14:30:53;17.60;;;14.07;;
9821;SDS011;4950;46.042;14.472;2022-12-18T14:33:21;17.47;;;14.93;;
9821;SDS011;4950;46.042;14.472;2022-12-18T14:35:53;15.13;;;12.90;;
9821;SDS011;4950;46.042;14.472;2022-12-18T14:38:24;17.37;;;13.77;;
9821;SDS011;4950;46.042;14.472;2022-12-18T14:40:55;19.80;;;14.00;;
9821;SDS011;4950;46.042;14.472;2022-12-18T14:43:23;17.20;;;13.10;;
9821;SDS011;4950;46.042;14.472;2022-12-18T14:45:50;16.17;;;12.93;;
9821;SDS011;4950;46.042;14.472;2022-12-18T14:48:19;16.20;;;13.53;;
9821;SDS011;4950;46.042;14.472;2022-12-18T14:50:54;16.57;;;13.23;;
9821;SDS011;4950;46.042;14.472;2022-12-18T14:53:23;16.93;;;13.97;;
9821;SDS011;4950;46.042;14.472;2022-12-18T14:55:56;17.07;;;13.93;;
9821;SDS011;4950;46.042;14.472;2022-12-18T14:58:22;16.87;;;13.73;;
9821;SDS011;4950;46.042;14.472;2022-12-18T15:00:49;14.93;;;13.30;;